createdAt,value
2022-11-22T00:00:49.224Z,100065.00
2022-11-22T00:03:18.055Z,100070.78
2022-11-22T00:05:45.786Z,100061.97
2022-11-22T00:08:13.577Z,100063.09
2022-11-22T00:10:42.728Z,100076.06
2022-11-22T00:13:10.568Z,100066.53
2022-11-22T00:15:38.324Z,100060.53
2022-11-22T00:18:06.096Z,100066.44
2022-11-22T00:20:34.480Z,100060.50
2022-11-22T00:23:02.208Z,100076.25
2022-11-22T00:25:30.030Z,100073.16
2022-11-22T00:27:59.118Z,100073.84
2022-11-22T00:30:26.820Z,100060.19
2022-11-22T00:32:54.579Z,100065.91
2022-11-22T00:35:22.270Z,100072.88
2022-11-22T00:37:49.977Z,100068.97
2022-11-22T00:40:17.823Z,100072.69
2022-11-22T00:42:45.533Z,100078.13
2022-11-22T00:45:14.615Z,100068.94
2022-11-22T00:47:42.344Z,100078.41
2022-11-22T00:50:10.866Z,100085.22
2022-11-22T00:52:38.611Z,100067.53
2022-11-22T00:55:07.159Z,100045.31
2022-11-22T00:57:34.922Z,100043.06
2022-11-22T01:00:02.692Z,100040.06
2022-11-22T01:02:31.845Z,100048.88
2022-11-22T01:04:59.533Z,100069.69
2022-11-22T01:07:27.370Z,100073.38
2022-11-22T01:09:55.101Z,100075.97
2022-11-22T01:12:22.979Z,100073.38
2022-11-22T01:14:50.774Z,100073.94
2022-11-22T01:17:18.695Z,100063.81
2022-11-22T01:19:48.036Z,100064.75
2022-11-22T01:22:15.757Z,100041.22
2022-11-22T01:24:43.642Z,100054.38
2022-11-22T01:27:11.387Z,100037.38
2022-11-22T01:29:39.139Z,100054.84
2022-11-22T01:32:07.002Z,100054.78
2022-11-22T01:34:34.977Z,100048.25
2022-11-22T01:37:04.069Z,100058.72
2022-11-22T01:39:32.343Z,100058.38
2022-11-22T01:42:00.242Z,100055.88
2022-11-22T01:44:30.618Z,100070.84
2022-11-22T01:47:00.628Z,100066.25
2022-11-22T01:49:32.191Z,100058.91
2022-11-22T01:52:06.045Z,100045.84
2022-11-22T01:54:37.088Z,100039.28
2022-11-22T01:57:09.219Z,100030.78
2022-11-22T01:59:41.467Z,100014.41
2022-11-22T02:02:09.427Z,99996.00
2022-11-22T02:04:38.740Z,100000.31
2022-11-22T02:07:12.156Z,100001.38
2022-11-22T02:09:41.821Z,99992.47
2022-11-22T02:12:11.000Z,99993.63
2022-11-22T02:14:39.866Z,99989.94
2022-11-22T02:17:07.625Z,99995.34
2022-11-22T02:19:42.831Z,100004.88
2022-11-22T02:22:24.784Z,99992.66
2022-11-22T02:24:57.273Z,99990.72
2022-11-22T02:27:27.485Z,99986.78
2022-11-22T02:29:55.212Z,99998.09
2022-11-22T02:32:23.037Z,100002.00
2022-11-22T02:34:52.104Z,100001.31
2022-11-22T02:37:24.025Z,100008.28
2022-11-22T02:39:57.112Z,100001.50
2022-11-22T02:42:27.212Z,100015.91
2022-11-22T02:44:54.959Z,100008.44
2022-11-22T02:47:22.714Z,100014.41
2022-11-22T02:49:50.456Z,100008.84
2022-11-22T02:52:18.840Z,99993.47
2022-11-22T02:54:46.602Z,99977.72
2022-11-22T02:57:14.493Z,99981.25
2022-11-22T02:59:43.647Z,99991.13
2022-11-22T03:02:11.389Z,99998.03
2022-11-22T03:04:39.601Z,99993.00
2022-11-22T03:07:07.687Z,100010.91
2022-11-22T03:09:35.484Z,100007.53
2022-11-22T03:12:03.283Z,100003.44
2022-11-22T03:14:31.050Z,100009.16
2022-11-22T03:17:00.110Z,100017.41
2022-11-22T03:19:27.984Z,100011.38
2022-11-22T03:21:55.820Z,99988.56
2022-11-22T03:24:23.609Z,99984.09
2022-11-22T03:26:51.592Z,99967.72
2022-11-22T03:29:19.474Z,99974.94
2022-11-22T03:31:47.373Z,99967.13
2022-11-22T03:34:17.515Z,99966.94
2022-11-22T03:36:45.274Z,99963.91
2022-11-22T03:39:12.979Z,99989.00
2022-11-22T03:41:40.736Z,99989.88
2022-11-22T03:44:08.514Z,99981.78
2022-11-22T03:46:36.656Z,99977.16
2022-11-22T03:49:04.477Z,99987.97
2022-11-22T03:51:33.618Z,99990.06
2022-11-22T03:54:01.428Z,99983.66
2022-11-22T03:56:30.890Z,99977.31
2022-11-22T03:58:58.784Z,99971.25
2022-11-22T04:01:26.636Z,99969.25
2022-11-22T04:03:54.590Z,99966.38
2022-11-22T04:06:22.440Z,99967.38
2022-11-22T04:08:51.723Z,99960.53
2022-11-22T04:11:19.477Z,99971.94
2022-11-22T04:14:04.500Z,99971.06
2022-11-22T04:16:32.260Z,99982.38
2022-11-22T04:18:59.945Z,99986.25
2022-11-22T04:21:35.724Z,99979.72
2022-11-22T04:24:24.936Z,99964.16
2022-11-22T04:26:53.440Z,99963.53
2022-11-22T04:29:22.093Z,99975.53
2022-11-22T04:32:08.127Z,99973.66
2022-11-22T04:34:38.717Z,99972.91
2022-11-22T04:37:06.913Z,99976.22
2022-11-22T04:39:36.267Z,99967.47
2022-11-22T04:42:21.640Z,99959.06
2022-11-22T04:44:49.405Z,99970.66
2022-11-22T04:47:33.175Z,99961.38
2022-11-22T04:50:01.129Z,99979.91
2022-11-22T04:52:46.615Z,99982.19
2022-11-22T04:55:15.889Z,100002.66
2022-11-22T04:57:43.633Z,100007.81
2022-11-22T05:00:12.333Z,99988.03
2022-11-22T05:02:40.070Z,99996.94
2022-11-22T05:05:08.510Z,99987.75
2022-11-22T05:07:36.302Z,99999.03
2022-11-22T05:10:04.115Z,99994.38
2022-11-22T05:12:33.343Z,99996.53
2022-11-22T05:15:01.075Z,99979.66
2022-11-22T05:17:28.895Z,99970.66
2022-11-22T05:19:56.624Z,99968.31
2022-11-22T05:22:45.065Z,99978.69
2022-11-22T05:25:11.875Z,99990.44
2022-11-22T05:27:40.958Z,99985.97
2022-11-22T05:30:09.446Z,99988.66
2022-11-22T05:32:37.252Z,99991.47
2022-11-22T05:35:05.831Z,99998.47
2022-11-22T05:37:33.542Z,99995.75
2022-11-22T05:40:01.309Z,100016.81
2022-11-22T05:42:29.051Z,99996.00
2022-11-22T05:44:58.107Z,99995.69
2022-11-22T05:47:25.881Z,99976.13
2022-11-22T05:49:53.624Z,99981.63
2022-11-22T05:52:21.414Z,99965.31
2022-11-22T05:54:49.137Z,99960.19
2022-11-22T05:57:16.857Z,99979.22
2022-11-22T05:59:44.763Z,99970.00
2022-11-22T06:02:13.898Z,99977.88
2022-11-22T06:04:41.871Z,99996.09
2022-11-22T06:07:10.500Z,100005.88
2022-11-22T06:09:38.866Z,100010.84
2022-11-22T06:12:07.145Z,100007.16
2022-11-22T06:14:39.944Z,100008.72
2022-11-22T06:17:10.695Z,100022.03
2022-11-22T06:19:39.778Z,100012.25
2022-11-22T06:22:07.505Z,100032.06
2022-11-22T06:24:35.216Z,100048.53
2022-11-22T06:27:03.036Z,100051.28
2022-11-22T06:29:31.136Z,100051.81
2022-11-22T06:32:03.499Z,100045.00
2022-11-22T06:34:31.896Z,100051.28
2022-11-22T06:37:00.986Z,100058.19
2022-11-22T06:39:29.056Z,100053.66
2022-11-22T06:41:57.066Z,100063.66
2022-11-22T06:44:24.850Z,100044.41
2022-11-22T06:46:52.565Z,100038.22
2022-11-22T06:49:20.258Z,100045.34
2022-11-22T06:51:48.019Z,100043.38
2022-11-22T06:54:17.114Z,100041.19
2022-11-22T06:56:44.807Z,100051.53
2022-11-22T06:59:12.598Z,100040.13
2022-11-22T07:01:40.445Z,100025.38
2022-11-22T07:04:08.194Z,100012.09
2022-11-22T07:06:38.585Z,99994.66
2022-11-22T07:09:08.410Z,100004.34
2022-11-22T07:11:38.314Z,100017.59
2022-11-22T07:14:08.864Z,100004.47
2022-11-22T07:16:38.122Z,100004.78
2022-11-22T07:19:07.068Z,99996.75
2022-11-22T07:21:37.155Z,100001.66
2022-11-22T07:24:07.231Z,100009.28
2022-11-22T07:26:35.050Z,100007.69
2022-11-22T07:29:04.532Z,100020.31
2022-11-22T07:31:32.360Z,100029.72
2022-11-22T07:34:00.161Z,100040.34
2022-11-22T07:36:29.524Z,100019.16
2022-11-22T07:38:57.520Z,100028.16
2022-11-22T07:41:25.418Z,100037.94
2022-11-22T07:43:54.013Z,100035.31
2022-11-22T07:46:26.132Z,100034.38
2022-11-22T07:48:53.964Z,100036.34
2022-11-22T07:51:21.685Z,100026.13
2022-11-22T07:53:49.413Z,100032.88
2022-11-22T07:56:17.924Z,100028.19
2022-11-22T07:58:45.687Z,100035.50
2022-11-22T08:01:16.590Z,100024.13
2022-11-22T08:03:46.553Z,100033.28
2022-11-22T08:06:15.418Z,100027.81
2022-11-22T08:08:44.683Z,100023.44
2022-11-22T08:11:12.772Z,100020.84
2022-11-22T08:13:40.953Z,100005.41
2022-11-22T08:16:11.279Z,100021.88
2022-11-22T08:18:39.619Z,100023.34
2022-11-22T08:21:10.983Z,100012.69
2022-11-22T08:23:39.971Z,100019.72
2022-11-22T08:26:09.383Z,100029.56
2022-11-22T08:28:37.220Z,100043.66
2022-11-22T08:31:07.199Z,100046.97
2022-11-22T08:33:35.540Z,100044.25
2022-11-22T08:36:03.671Z,100034.56
2022-11-22T08:38:32.850Z,100045.66
2022-11-22T08:41:00.548Z,100040.88
2022-11-22T08:43:28.747Z,100043.50
2022-11-22T08:45:58.504Z,100047.34
2022-11-22T08:48:27.462Z,100043.03
2022-11-22T08:50:56.883Z,100042.03
2022-11-22T08:53:25.493Z,100050.38
2022-11-22T08:55:56.018Z,100048.53
2022-11-22T08:58:24.063Z,100054.53
2022-11-22T09:00:51.826Z,100061.81
2022-11-22T09:03:19.634Z,100068.91
2022-11-22T09:08:40.450Z,100061.59
2022-11-22T09:11:16.461Z,100078.25
2022-11-22T09:13:44.567Z,100076.06
2022-11-22T09:16:14.500Z,100075.22
2022-11-22T09:18:42.759Z,100081.81
2022-11-22T09:21:15.750Z,100079.03
2022-11-22T09:23:44.560Z,100079.59
2022-11-22T09:26:15.465Z,100083.88
2022-11-22T09:28:43.773Z,100081.19
2022-11-22T09:31:13.818Z,100081.81
2022-11-22T09:33:45.056Z,100084.03
2022-11-22T09:36:14.703Z,100086.19
2022-11-22T09:38:42.526Z,100086.53
2022-11-22T09:41:29.607Z,100066.38
2022-11-22T09:44:06.468Z,100060.22
2022-11-22T09:46:43.520Z,100046.41
2022-11-22T09:49:28.016Z,100032.28
2022-11-22T09:52:04.184Z,100037.94
2022-11-22T09:54:39.932Z,100009.31
2022-11-22T09:57:16.495Z,100003.53
2022-11-22T09:59:48.462Z,100022.81
2022-11-22T10:02:22.443Z,100018.41
2022-11-22T10:04:56.409Z,100030.06
2022-11-22T10:07:29.802Z,100043.59
2022-11-22T10:10:04.107Z,100045.34
2022-11-22T10:12:41.244Z,100037.66
2022-11-22T10:15:17.155Z,100052.22
2022-11-22T10:17:53.748Z,100050.13
2022-11-22T10:20:23.070Z,100049.41
2022-11-22T10:22:51.128Z,100050.53
2022-11-22T10:25:20.729Z,100045.63
2022-11-22T10:28:00.425Z,100055.91
2022-11-22T10:30:35.180Z,100060.63
2022-11-22T10:33:14.147Z,100066.25
2022-11-22T10:36:01.808Z,100068.59
2022-11-22T10:38:57.424Z,100076.78
2022-11-22T10:41:39.675Z,100052.63
2022-11-22T10:44:20.155Z,100079.59
2022-11-22T10:46:57.161Z,100089.88
2022-11-22T10:49:46.664Z,100098.28
2022-11-22T10:52:23.165Z,100099.47
2022-11-22T10:54:58.809Z,100090.09
2022-11-22T10:57:33.991Z,100088.03
2022-11-22T11:00:17.895Z,100073.22
2022-11-22T11:03:04.010Z,100080.44
2022-11-22T11:05:37.307Z,100074.94
2022-11-22T11:08:36.882Z,100086.44
2022-11-22T11:10:54.137Z,100086.25
2022-11-22T11:13:26.144Z,100096.50
2022-11-22T11:15:58.933Z,100097.81
2022-11-22T11:18:31.977Z,100107.75
2022-11-22T11:20:59.823Z,100085.50
2022-11-22T11:23:27.561Z,100096.50
2022-11-22T11:25:55.375Z,100093.97
2022-11-22T11:28:27.264Z,100079.34
2022-11-22T11:30:59.705Z,100091.00
2022-11-22T11:33:29.764Z,100082.84
2022-11-22T11:36:03.300Z,100075.69
2022-11-22T11:38:34.681Z,100077.16
2022-11-22T11:41:26.166Z,100058.03
2022-11-22T11:43:55.227Z,100050.81
2022-11-22T11:46:26.303Z,100047.16
2022-11-22T11:48:55.538Z,100041.94
2022-11-22T11:51:26.717Z,100045.22
2022-11-22T11:53:59.889Z,100047.97
2022-11-22T11:56:34.009Z,100038.03
2022-11-22T11:59:07.941Z,100032.88
2022-11-22T12:01:39.181Z,100032.72
2022-11-22T12:04:16.024Z,100053.88
2022-11-22T12:06:57.582Z,100055.50
2022-11-22T12:09:36.897Z,100070.66
2022-11-22T12:12:16.225Z,100049.84
2022-11-22T12:15:10.228Z,100047.31
2022-11-22T12:17:47.721Z,100063.66
2022-11-22T12:20:21.201Z,100069.25
2022-11-22T12:23:00.103Z,100062.44
2022-11-22T12:25:34.192Z,100059.09
2022-11-22T12:28:12.138Z,100055.66
2022-11-22T12:30:42.318Z,100040.06
2022-11-22T12:33:19.075Z,100036.03
2022-11-22T12:35:47.290Z,100023.16
2022-11-22T12:38:19.715Z,100022.91
2022-11-22T12:40:50.846Z,100036.56
2022-11-22T12:43:24.750Z,100042.63
2022-11-22T12:45:56.145Z,100039.13
2022-11-22T12:48:31.431Z,100034.38
2022-11-22T12:51:04.634Z,100029.59
2022-11-22T12:53:36.699Z,100028.56
2022-11-22T12:56:12.366Z,100015.22
2022-11-22T12:58:48.699Z,100011.72
2022-11-22T13:01:21.742Z,100019.94
2022-11-22T13:03:57.596Z,100028.69
2022-11-22T13:06:29.253Z,100032.22
2022-11-22T13:09:04.067Z,100028.78
2022-11-22T13:11:35.852Z,100024.78
2022-11-22T13:14:08.602Z,100033.31
2022-11-22T13:16:36.477Z,100026.91
2022-11-22T13:19:07.359Z,100016.38
2022-11-22T13:21:47.747Z,100023.63
2022-11-22T13:24:27.060Z,100020.81
2022-11-22T13:27:07.987Z,100033.22
2022-11-22T13:29:37.246Z,100035.13
2022-11-22T13:32:08.932Z,100047.66
2022-11-22T13:34:41.215Z,100049.72
2022-11-22T13:37:13.201Z,100044.09
2022-11-22T13:39:47.094Z,100044.88
2022-11-22T13:42:19.596Z,100024.59
2022-11-22T13:45:07.208Z,100016.84
2022-11-22T13:47:43.425Z,100019.25
2022-11-22T13:50:54.522Z,100018.88
2022-11-22T13:53:27.067Z,100011.16
2022-11-22T13:55:54.825Z,99999.88
2022-11-22T13:58:51.934Z,100000.81
2022-11-22T14:01:56.964Z,99996.03
2022-11-22T14:04:44.376Z,100002.59
2022-11-22T14:07:34.166Z,100005.75
2022-11-22T14:10:05.317Z,100003.63
2022-11-22T14:13:04.771Z,99990.25
2022-11-22T14:15:52.260Z,99987.03
2022-11-22T14:18:49.485Z,99984.22
2022-11-22T14:21:40.133Z,99985.59
2022-11-22T14:24:18.198Z,99974.59
2022-11-22T14:26:55.898Z,99982.03
2022-11-22T14:30:02.380Z,100002.75
2022-11-22T14:32:51.872Z,100015.34
2022-11-22T14:35:29.585Z,100015.50
2022-11-22T14:38:40.258Z,100022.63
2022-11-22T14:41:53.955Z,100009.91
2022-11-22T14:44:33.014Z,100017.97
2022-11-22T14:47:06.555Z,100045.97
2022-11-22T14:49:43.189Z,100047.13
2022-11-22T14:52:21.156Z,100040.03
2022-11-22T14:54:51.314Z,100036.25
2022-11-22T14:57:23.667Z,100044.91
2022-11-22T15:00:08.652Z,100074.97
2022-11-22T15:03:13.649Z,100094.53
2022-11-22T15:09:14.562Z,100114.25
2022-11-22T15:09:25.591Z,100130.53
2022-11-22T15:11:59.673Z,100137.16
2022-11-22T15:58:06.058Z,100222.28
2022-11-22T16:00:33.928Z,100219.28
2022-11-22T16:03:04.250Z,100212.56
2022-11-22T16:06:05.725Z,100222.81
2022-11-22T16:08:27.863Z,100234.03
2022-11-22T16:11:00.227Z,100232.88
2022-11-22T16:13:29.773Z,100225.59
2022-11-22T16:16:17.565Z,100250.00
2022-11-22T16:18:46.264Z,100259.09
2022-11-22T16:21:27.735Z,100249.03
2022-11-22T16:24:18.626Z,100256.66
2022-11-22T16:26:56.078Z,100258.63
2022-11-22T16:29:29.041Z,100256.84
2022-11-22T16:32:01.605Z,100255.78
2022-11-22T16:34:29.385Z,100271.00
2022-11-22T16:36:57.200Z,100274.31
2022-11-22T16:39:26.322Z,100266.03
2022-11-22T16:41:55.184Z,100257.31
2022-11-22T16:44:25.438Z,100261.69
2022-11-22T16:46:56.305Z,100260.47
2022-11-22T16:49:24.067Z,100256.50
2022-11-22T16:51:52.704Z,100258.69
2022-11-22T16:54:23.996Z,100253.28
2022-11-22T16:56:53.253Z,100254.34
2022-11-22T16:59:21.225Z,100256.44
2022-11-22T17:01:49.687Z,100272.25
2022-11-22T17:04:22.946Z,100277.59
2022-11-22T17:06:51.146Z,100274.63
2022-11-22T17:09:19.012Z,100275.78
2022-11-22T17:11:47.349Z,100261.22
2022-11-22T17:14:17.899Z,100277.03
2022-11-22T17:16:46.784Z,100271.06
2022-11-22T17:19:30.267Z,100276.94
2022-11-22T17:22:02.358Z,100283.50
2022-11-22T17:24:30.301Z,100295.13
2022-11-22T17:26:58.274Z,100295.72
2022-11-22T17:32:15.185Z,100311.41
2022-11-22T17:34:42.905Z,100318.31
2022-11-22T17:37:13.077Z,100310.13
2022-11-22T17:39:41.371Z,100303.78
2022-11-22T17:42:09.243Z,100297.66
2022-11-22T17:44:38.315Z,100304.31
2022-11-22T17:47:06.221Z,100305.81
2022-11-22T17:49:34.263Z,100307.44
2022-11-22T17:52:02.311Z,100318.06
2022-11-22T17:54:30.111Z,100326.22
2022-11-22T17:56:57.916Z,100332.75
2022-11-22T17:59:25.956Z,100343.56
2022-11-22T18:01:55.122Z,100353.81
2022-11-22T18:04:23.082Z,100354.91
2022-11-22T18:06:50.853Z,100355.75
2022-11-22T18:09:18.554Z,100374.78
2022-11-22T18:11:46.341Z,100365.94
2022-11-22T18:14:14.260Z,100377.00
2022-11-22T18:16:46.205Z,100391.16
2022-11-22T18:19:15.870Z,100400.16
2022-11-22T18:21:43.692Z,100405.69
2022-11-22T18:24:11.597Z,100425.09
2022-11-22T18:26:40.574Z,100424.59
2022-11-22T18:29:39.035Z,100431.63
2022-11-22T18:31:57.917Z,100449.06
2022-11-22T18:34:32.003Z,100457.06
2022-11-22T18:37:03.562Z,100466.78
2022-11-22T18:39:34.540Z,100473.34
2022-11-22T18:42:46.648Z,100483.13
2022-11-22T18:45:14.393Z,100476.66
2022-11-22T18:47:42.176Z,100483.00
2022-11-22T18:50:12.906Z,100481.63
2022-11-22T18:52:40.979Z,100488.28
2022-11-22T18:55:15.713Z,100484.97
2022-11-22T18:57:43.588Z,100481.38
2022-11-22T19:00:12.968Z,100473.34
2022-11-22T19:02:40.684Z,100484.72
2022-11-22T19:05:08.751Z,100485.84
2022-11-22T19:07:42.202Z,100490.78
2022-11-22T19:10:11.041Z,100493.50
2022-11-22T19:12:38.756Z,100494.25
2022-11-22T19:15:07.453Z,100494.56
2022-11-22T19:17:35.323Z,100499.03
2022-11-22T19:20:03.192Z,100492.84
2022-11-22T19:22:30.894Z,100485.69
2022-11-22T19:24:59.984Z,100499.38
2022-11-22T19:27:27.836Z,100498.03
2022-11-22T19:29:55.598Z,100503.63
2022-11-22T19:32:23.386Z,100502.34
2022-11-22T19:34:52.048Z,100508.59
2022-11-22T19:37:19.979Z,100523.41
2022-11-22T19:39:48.781Z,100522.50
2022-11-22T19:42:18.031Z,100533.97
2022-11-22T19:44:47.857Z,100545.84
2022-11-22T19:47:17.029Z,100548.69
2022-11-22T19:49:44.774Z,100562.50
2022-11-22T19:52:17.292Z,100564.19
2022-11-22T19:54:45.599Z,100561.44
2022-11-22T19:57:13.331Z,100556.50
2022-11-22T19:59:42.483Z,100558.28
2022-11-22T20:02:10.815Z,100574.69
2022-11-22T20:04:38.566Z,100566.75
2022-11-22T20:07:06.367Z,100565.56
2022-11-22T20:09:34.189Z,100578.16
2022-11-22T20:12:01.984Z,100579.25
2022-11-22T20:14:30.001Z,100581.13
2022-11-22T20:16:59.394Z,100586.66
2022-11-22T20:19:37.375Z,100584.31
2022-11-22T20:22:05.127Z,100589.59
2022-11-22T20:24:33.441Z,100587.97
2022-11-22T20:27:02.514Z,100595.50
2022-11-22T20:29:30.249Z,100600.69
2022-11-22T20:32:01.646Z,100587.16
2022-11-22T20:34:30.282Z,100601.13
2022-11-22T20:36:58.231Z,100602.97
2022-11-22T20:39:26.015Z,100607.78
2022-11-22T20:42:11.843Z,100608.50
2022-11-22T20:44:41.482Z,100614.09
2022-11-22T20:47:10.612Z,100603.22
2022-11-22T20:49:43.929Z,100607.75
2022-11-22T20:52:13.264Z,100612.63
2022-11-22T20:54:41.025Z,100611.09
2022-11-22T20:57:11.319Z,100618.84
2022-11-22T20:59:41.208Z,100627.13
2022-11-22T21:02:11.368Z,100626.91
2022-11-22T21:04:39.096Z,100634.28
2022-11-22T21:07:06.976Z,100640.97
2022-11-22T21:09:34.752Z,100635.75
2022-11-22T21:12:02.531Z,100644.13
2022-11-22T21:14:30.475Z,100653.00
2022-11-22T21:17:11.056Z,100643.28
2022-11-22T21:19:47.580Z,100645.00
2022-11-22T21:22:15.375Z,100647.97
2022-11-22T21:24:43.122Z,100640.06
2022-11-22T21:27:10.923Z,100646.88
2022-11-22T21:29:38.660Z,100658.03
2022-11-22T21:32:06.903Z,100655.13
2022-11-22T21:34:34.635Z,100655.78
2022-11-22T21:37:03.754Z,100656.44
2022-11-22T21:39:33.975Z,100656.81
2022-11-22T21:42:01.762Z,100660.19
2022-11-22T21:44:29.772Z,100654.13
2022-11-22T21:46:57.617Z,100653.03
2022-11-22T21:49:25.318Z,100665.28
2022-11-22T21:51:53.168Z,100663.28
2022-11-22T21:54:22.639Z,100657.47
2022-11-22T21:56:50.348Z,100658.25
2022-11-22T21:59:18.053Z,100658.38
2022-11-22T22:01:45.791Z,100661.91
2022-11-22T22:04:13.790Z,100658.13
2022-11-22T22:06:45.947Z,100668.63
2022-11-22T22:09:14.010Z,100668.22
2022-11-22T22:11:45.575Z,100664.59
2022-11-22T22:14:13.287Z,100656.19
2022-11-22T22:16:41.065Z,100663.78
2022-11-22T22:19:09.636Z,100663.34
2022-11-22T22:21:37.468Z,100655.97
2022-11-22T22:24:05.672Z,100652.13
2022-11-22T22:26:33.437Z,100652.78
2022-11-22T22:29:02.518Z,100650.69
2022-11-22T22:31:30.249Z,100653.41
2022-11-22T22:33:58.680Z,100637.16
2022-11-22T22:36:28.132Z,100641.34
2022-11-22T22:38:56.152Z,100636.47
2022-11-22T22:41:23.902Z,100637.00
2022-11-22T22:43:52.163Z,100634.91
2022-11-22T22:46:23.196Z,100642.78
2022-11-22T22:48:51.893Z,100655.53
2022-11-22T22:51:20.925Z,100653.56
2022-11-22T22:53:49.113Z,100660.41
2022-11-22T22:56:20.075Z,100662.63
2022-11-22T22:58:47.991Z,100657.38
2022-11-22T23:01:17.774Z,100658.16
2022-11-22T23:03:50.169Z,100668.41
2022-11-22T23:06:18.995Z,100660.19
2022-11-22T23:08:48.492Z,100661.16
2022-11-22T23:11:18.197Z,100665.78
2022-11-22T23:13:45.990Z,100677.19
2022-11-22T23:16:15.332Z,100680.34
2022-11-22T23:18:45.171Z,100673.84
2022-11-22T23:21:15.829Z,100668.88
2022-11-22T23:23:43.752Z,100660.88
2022-11-22T23:26:13.489Z,100673.22
2022-11-22T23:28:41.305Z,100674.78
2022-11-22T23:31:12.105Z,100679.56
2022-11-22T23:33:39.852Z,100684.94
2022-11-22T23:36:10.495Z,100694.47
2022-11-22T23:38:40.154Z,100696.19
2022-11-22T23:41:08.062Z,100694.59
2022-11-22T23:43:35.789Z,100686.03
2022-11-22T23:46:03.740Z,100689.03
2022-11-22T23:48:31.581Z,100693.19
2022-11-22T23:51:03.543Z,100681.69
2022-11-22T23:53:31.312Z,100678.63
2022-11-22T23:56:06.617Z,100687.84
2022-11-22T23:58:34.419Z,100689.78
